Latest Weather Observations for Rhyll

IDV60801

Issued at 4:02 pm EDT Sunday 18 February 2018 (issued every 30 minutes, with the page automatically refreshed every 10 minutes)

About weather observations | Map of weather stations | Latest weather observations for VIC | Other Formats
Station Details ID: 086373 Name: RHYLL Lat: -38.46 Lon: 145.31 Height: 13.4 m
Data from the previous 72 hours. | See also: Recent months at Rhyll
Date/Time
EDT
Temp
°C
App
Temp
°C
Dew
Point
°C
Rel
Hum
%
Delta-T
°C
Wind Press
QNH
hPa
Press
MSL
hPa
Rain since
9am
mm
Dir  Spd
km/h
Gust
km/h
Spd
kts
Gust
kts
18/04:00pm 22.1 21.0 15.2 65 4.1 S 15 20 8 11 1013.0 1012.9 0.0
18/03:30pm 21.5 20.6 14.9 66 3.9 S 13 22 7 12 1013.1 1013.0 0.0
18/03:00pm 22.3 21.0 14.9 63 4.4 S 15 24 8 13 1013.2 1013.1 0.0
18/02:30pm 23.8 22.9 14.8 57 5.4 S 13 22 7 12 1013.4 1013.3 0.0
18/02:00pm 22.9 22.5 15.2 62 4.6 S 11 17 6 9 1013.4 1013.3 0.0
18/01:30pm 22.3 21.6 14.4 61 4.6 S 11 19 6 10 1013.4 1013.3 0.0
18/01:00pm 23.3 23.4 15.6 62 4.6 S 9 19 5 10 1013.3 1013.2 0.0
18/12:30pm 22.9 22.8 15.0 61 4.7 S 9 17 5 9 1013.6 1013.5 0.0
18/12:00pm 23.3 23.6 15.1 60 4.9 S 7 13 4 7 1013.7 1013.6 0.0
18/11:30am 22.9 23.6 15.5 63 4.4 S 6 9 3 5 1013.5 1013.4 0.0
18/11:00am 22.0 21.6 14.1 61 4.6 SSE 9 13 5 7 1013.3 1013.2 0.0
18/10:30am 21.8 22.1 14.4 63 4.3 SE 6 9 3 5 1013.1 1013.0 0.0
18/10:00am 21.7 22.4 15.5 68 3.7 SE 6 13 3 7 1013.1 1013.0 0.0
18/09:30am 21.4 21.8 15.3 68 3.6 SE 7 11 4 6 1013.2 1013.1 0.0
18/09:00am 20.0 19.8 14.6 71 3.1 SE 9 11 5 6 1013.3 1013.2 0.0
18/08:30am 19.2 19.1 14.0 72 3.0 SE 7 15 4 8 1012.9 1012.8 0.0
18/08:00am 18.7 18.8 13.8 73 2.8 SE 6 9 3 5 1012.8 1012.7 0.0
18/07:30am 17.4 16.9 13.9 80 2.0 ESE 9 11 5 6 1012.5 1012.4 0.0
18/07:00am 16.5 16.4 13.2 81 1.8 SE 6 9 3 5 1012.4 1012.3 0.0
18/06:30am 16.4 16.0 12.9 80 1.9 ESE 7 11 4 6 1012.2 1012.1 0.0
18/06:00am 16.7 16.1 13.4 81 1.9 ESE 9 11 5 6 1012.0 1011.9 0.0
18/05:30am 17.1 16.2 13.8 81 1.9 ESE 11 13 6 7 1012.0 1011.9 0.0
18/05:00am 17.1 16.5 13.6 80 2.0 SE 9 15 5 8 1011.9 1011.8 0.0
18/04:30am 16.9 16.9 13.6 81 1.9 SE 6 7 3 4 1011.9 1011.8 0.0
18/04:00am 16.7 16.5 13.6 82 1.7 SSE 7 9 4 5 1012.0 1011.9 0.0
18/03:30am 16.7 16.8 13.8 83 1.6 SE 6 9 3 5 1012.0 1011.9 0.0
18/03:00am 16.7 16.6 14.0 84 1.5 ESE 7 9 4 5 1012.4 1012.3 0.0
18/02:30am 16.8 16.9 13.9 83 1.6 SE 6 7 3 4 1012.7 1012.6 0.0
18/02:00am 16.4 16.4 13.5 83 1.6 S 6 9 3 5 1012.7 1012.6 0.0
18/01:30am 16.3 16.2 13.2 82 1.7 S 6 9 3 5 1013.0 1012.9 0.0
18/01:00am 16.0 15.1 12.7 81 1.8 E 9 11 5 6 1013.6 1013.5 0.0
18/12:30am 16.5 15.4 13.2 81 1.8 E 11 15 6 8 1013.4 1013.3 0.0
18/12:00am 16.8 15.7 13.1 79 2.1 E 11 15 6 8 1013.3 1013.2 0.0
 
Date/Time
EDT
Temp
°C
App
Temp
°C
Dew
Point
°C
Rel
Hum
%
Delta-T
°C
Wind Press
QNH
hPa
Press
MSL
hPa
Rain since
9am
mm
Dir  Spd
km/h
Gust
km/h
Spd
kts
Gust
kts
17/11:30pm 17.0 15.6 13.3 79 2.1 E 13 17 7 9 1013.3 1013.2 0.0
17/11:00pm 17.0 16.5 13.7 81 1.9 E 9 13 5 7 1013.4 1013.3 0.0
17/10:30pm 16.7 16.6 13.2 80 2.0 ESE 6 9 3 5 1013.6 1013.5 0.0
17/10:00pm 16.7 16.8 12.8 78 2.2 SE 4 6 2 3 1013.4 1013.3 0.0
17/09:30pm 16.9 16.8 13.2 79 2.1 SSE 6 7 3 4 1013.2 1013.1 0.0
17/09:00pm 16.9 16.6 12.6 76 2.4 SSE 6 9 3 5 1013.0 1012.9 0.0
17/08:30pm 17.7 17.2 12.6 72 2.8 S 7 11 4 6 1013.0 1012.9 0.0
17/08:00pm 18.2 17.6 12.4 69 3.2 S 7 13 4 7 1012.8 1012.7 0.0
17/07:30pm 19.1 17.8 12.4 65 3.7 SSW 11 20 6 11 1012.5 1012.4 0.0
17/07:00pm 19.5 18.0 13.0 66 3.7 SSW 13 26 7 14 1012.4 1012.3 0.0
17/06:30pm 19.9 18.0 12.9 64 4.0 SSW 15 24 8 13 1012.4 1012.3 0.0
17/06:00pm 19.8 16.8 12.1 61 4.3 SSW 19 30 10 16 1012.4 1012.3 0.0
17/05:30pm 20.3 17.8 12.3 60 4.5 SSW 17 26 9 14 1012.1 1012.0 0.0
17/05:00pm 20.6 17.6 12.1 58 4.8 SSW 19 33 10 18 1012.2 1012.1 0.0
17/04:30pm 21.1 18.9 13.3 61 4.5 SSW 17 32 9 17 1011.9 1011.8 0.0
17/04:00pm 21.3 19.1 12.2 56 5.1 SSW 15 30 8 16 1012.0 1011.9 0.0
17/03:30pm 21.4 20.1 13.6 61 4.5 SSW 13 24 7 13 1012.0 1011.9 0.0
17/03:00pm 22.3 22.1 14.7 62 4.5 S 9 19 5 10 1011.8 1011.7 0.0
17/02:30pm 22.3 22.6 14.9 63 4.4 S 7 13 4 7 1012.0 1011.9 0.0
17/02:00pm 21.6 20.9 14.3 63 4.3 S 11 19 6 10 1012.4 1012.3 0.0
17/01:30pm 23.2 23.3 14.5 58 5.1 S 7 11 4 6 1012.5 1012.4 0.0
17/01:00pm 20.9 20.3 13.6 63 4.2 SSE 9 13 5 7 1012.6 1012.5 0.0
17/12:30pm 20.7 20.1 12.4 59 4.7 N 7 9 4 5 1012.8 1012.7 0.0
17/12:00pm 20.0 19.8 11.8 59 4.5 N 4 7 2 4 1013.0 1012.9 0.0
17/11:30am 21.3 20.8 11.9 55 5.3 ENE 6 7 3 4 1013.2 1013.1 0.0
17/11:00am 21.1 20.6 12.0 56 5.1 ENE 6 7 3 4 1013.0 1012.9 0.0
17/10:30am 21.7 21.0 13.3 59 4.8 ENE 9 11 5 6 1013.2 1013.1 0.0
17/10:00am 20.7 20.4 13.2 62 4.3 ENE 7 11 4 6 1013.6 1013.5 0.0
17/09:30am 19.5 19.1 12.3 63 4.0 ENE 6 7 3 4 1013.8 1013.7 0.0
17/09:00am 17.7 17.5 11.7 68 3.3 ENE 4 6 2 3 1013.9 1013.8 0.0
17/08:30am 16.5 16.2 11.4 72 2.8 NE 4 9 2 5 1013.6 1013.5 0.0
17/08:00am 15.6 15.1 12.0 79 2.0 ENE 6 7 3 4 1013.4 1013.3 0.0
17/07:30am 14.4 13.5 11.4 82 1.6 NE 7 13 4 7 1013.3 1013.2 0.0
17/07:00am 14.5 13.2 11.3 81 1.7 NE 9 15 5 8 1013.0 1012.9 0.0
17/06:30am 14.6 13.0 11.7 83 1.6 NNE 11 17 6 9 1013.0 1012.9 0.0
17/06:00am 14.9 12.7 12.0 83 1.6 N 15 19 8 10 1013.0 1012.9 0.0
17/05:30am 15.0 13.6 12.1 83 1.6 N 11 17 6 9 1012.8 1012.7 0.0
17/05:00am 15.1 13.8 12.4 84 1.5 N 11 17 6 9 1012.7 1012.6 0.0
17/04:30am 15.2 13.8 12.3 83 1.6 N 11 17 6 9 1012.9 1012.8 0.0
17/04:00am 14.9 14.2 11.9 82 1.6 NNE 7 13 4 7 1013.0 1012.9 0.0
17/03:30am 15.2 14.1 12.0 81 1.7 NNE 9 17 5 9 1013.0 1012.9 0.0
17/03:00am 15.2 14.1 12.0 81 1.7 N 9 17 5 9 1013.2 1013.1 0.0
17/02:30am 14.9 14.4 10.7 76 2.2 WNW 4 6 2 3 1013.6 1013.5 0.0
17/02:00am 14.8 14.2 10.4 75 2.3 WNW 4 4 2 2 1013.7 1013.6 0.0
17/01:30am 14.5 13.9 10.3 76 2.2 W 4 4 2 2 1014.1 1014.0 0.0
17/01:00am 13.9 13.5 9.9 77 2.1 WSW 2 4 1 2 1014.3 1014.2 0.0
17/12:30am 14.5 13.8 9.9 74 2.4 WSW 4 6 2 3 1014.3 1014.2 0.0
17/12:00am 14.6 13.8 9.8 73 2.5 WSW 4 6 2 3 1014.4 1014.3 0.0
 
Date/Time
EDT
Temp
°C
App
Temp
°C
Dew
Point
°C
Rel
Hum
%
Delta-T
°C
Wind Press
QNH
hPa
Press
MSL
hPa
Rain since
9am
mm
Dir  Spd
km/h
Gust
km/h
Spd
kts
Gust
kts
16/11:30pm 15.0 13.9 10.0 72 2.6 WSW 6 7 3 4 1014.5 1014.4 0.0
16/11:00pm 15.1 14.0 9.9 71 2.7 WSW 6 9 3 5 1014.7 1014.6 0.0
16/10:30pm 15.2 14.1 10.0 71 2.7 SW 6 9 3 5 1014.9 1014.8 0.0
16/10:00pm 15.4 14.3 10.0 70 2.8 WSW 6 9 3 5 1015.0 1014.9 0.0
16/09:30pm 15.5 14.2 9.8 69 3.0 WSW 7 13 4 7 1014.8 1014.7 0.0
16/09:00pm 15.8 14.2 10.1 69 3.0 SW 9 15 5 8 1014.8 1014.7 0.0
16/08:30pm 16.1 14.8 10.0 67 3.2 SW 7 15 4 8 1014.8 1014.7 0.0
16/08:00pm 16.6 15.0 10.2 66 3.4 SW 9 17 5 9 1014.5 1014.4 0.0
16/07:30pm 17.4 15.1 10.5 64 3.7 SW 13 19 7 10 1014.3 1014.2 0.0
16/07:00pm 17.9 16.1 10.8 63 3.8 SSW 11 19 6 10 1013.9 1013.8 0.0
16/06:30pm 18.2 15.9 10.6 61 4.1 SSW 13 24 7 13 1013.7 1013.6 0.0
16/06:00pm 18.7 15.8 9.8 56 4.7 SW 15 22 8 12 1013.7 1013.6 0.0
16/05:30pm 19.4 16.5 9.6 53 5.2 SSW 15 26 8 14 1013.7 1013.6 0.0
16/05:00pm 19.4 16.1 9.6 53 5.2 SW 17 30 9 16 1013.9 1013.8 0.0
16/04:30pm 19.5 16.3 10.0 54 5.1 SW 17 32 9 17 1014.0 1013.9 0.0
16/04:00pm 19.9 16.3 9.8 52 5.4 SW 19 32 10 17 1014.1 1014.0 0.0
16/03:30pm 19.5 16.0 8.8 50 5.6 SW 17 26 9 14 1014.2 1014.1 0.0
16/03:00pm 19.2 15.6 9.7 54 5.0 WSW 19 30 10 16 1014.3 1014.2 0.0
16/02:30pm 19.3 15.5 8.9 51 5.4 WSW 19 30 10 16 1014.4 1014.3 0.0
16/02:00pm 20.0 16.9 9.0 49 5.8 WSW 15 24 8 13 1014.5 1014.4 0.0
16/01:30pm 18.8 14.1 7.6 48 5.7 WSW 22 33 12 18 1014.5 1014.4 0.0
16/01:00pm 19.9 17.0 9.5 51 5.5 WSW 15 30 8 16 1014.6 1014.5 0.0
16/12:30pm 18.6 14.9 9.4 55 4.8 WSW 19 30 10 16 1014.6 1014.5 0.0
16/12:00pm 18.9 15.7 9.9 56 4.8 WSW 17 32 9 17 1014.7 1014.6 0.0
16/11:30am 17.8 14.4 9.2 57 4.5 W 17 30 9 16 1014.7 1014.6 0.0
16/11:00am 17.7 14.5 10.1 61 4.0 W 17 30 9 16 1014.6 1014.5 0.0
16/10:30am 17.5 14.2 9.4 59 4.2 W 17 26 9 14 1014.3 1014.2 0.0
16/10:00am 18.4 15.8 9.5 56 4.7 W 13 24 7 13 1014.0 1013.9 0.0
16/09:30am 18.0 14.8 9.9 59 4.3 W 17 32 9 17 1013.8 1013.7 0.0
16/09:00am 17.5 14.9 9.4 59 4.2 W 13 24 7 13 1013.7 1013.6 1.8
16/08:30am 16.9 13.9 9.3 61 4.0 W 15 24 8 13 1013.4 1013.3 1.8
16/08:00am 16.3 14.5 9.5 64 3.5 W 9 20 5 11 1012.9 1012.8 1.8
16/07:30am 16.0 13.9 9.7 66 3.3 W 11 19 6 10 1012.8 1012.7 1.8
16/07:00am 15.6 14.0 10.2 70 2.8 W 9 15 5 8 1012.4 1012.3 1.8
16/06:30am 15.3 14.3 12.2 82 1.7 W 9 17 5 9 1012.1 1012.0 1.8
16/06:00am 15.6 14.6 12.4 81 1.8 W 9 15 5 8 1011.8 1011.7 1.8
16/05:30am 15.2 14.7 12.0 81 1.7 W 6 11 3 6 1011.4 1011.3 1.8
16/05:00am 15.6 15.1 12.2 80 1.9 W 6 11 3 6 1011.4 1011.3 1.8
16/04:30am 15.6 15.1 12.0 79 2.0 W 6 11 3 6 1011.1 1011.0 1.8
16/04:00am 15.7 15.2 12.1 79 2.0 W 6 11 3 6 1011.1 1011.0 1.8
16/03:30am 15.5 15.0 12.1 80 1.9 WSW 6 9 3 5 1011.1 1011.0 1.8
16/03:00am 15.6 15.0 12.4 81 1.8 WSW 7 13 4 7 1011.1 1011.0 1.8
16/02:30am 15.2 14.9 13.2 88 1.1 W 7 15 4 8 1011.3 1011.2 1.8
16/02:00am 15.0 15.3 13.4 90 0.9 WNW 4 7 2 4 1011.6 1011.5 1.4
16/01:30am 15.1 14.9 13.5 90 0.9 WSW 7 13 4 7 1011.7 1011.6 1.4
16/01:00am 15.6 14.3 13.8 89 1.0 WSW 13 22 7 12 1011.7 1011.6 1.4
16/12:30am 15.9 15.4 13.9 88 1.1 W 9 19 5 10 1011.7 1011.6 1.2
16/12:00am 15.7 15.7 14.2 91 0.9 WSW 7 17 4 9 1011.6 1011.5 1.2
 
Date/Time
EDT
Temp
°C
App
Temp
°C
Dew
Point
°C
Rel
Hum
%
Delta-T
°C
Wind Press
QNH
hPa
Press
MSL
hPa
Rain since
9am
mm
Dir  Spd
km/h
Gust
km/h
Spd
kts
Gust
kts
15/11:30pm 15.7 13.3 13.7 88 1.1 WSW 19 33 10 18 1011.8 1011.7 1.2
15/11:00pm 17.8 16.4 13.3 75 2.5 W 13 22 7 12 1011.7 1011.6 1.0
15/10:30pm 18.1 17.1 13.4 74 2.7 W 11 19 6 10 1011.7 1011.6 1.0
15/10:00pm 18.1 16.6 13.2 73 2.8 W 13 24 7 13 1011.6 1011.5 1.0
15/09:30pm 18.4 16.4 12.8 70 3.1 W 15 22 8 12 1011.5 1011.4 1.0
15/09:00pm 18.6 17.5 13.2 71 3.1 W 11 26 6 14 1011.3 1011.2 1.0
15/08:30pm 18.7 17.4 13.6 72 2.9 W 13 22 7 12 1011.2 1011.1 1.0
15/08:00pm 18.8 17.8 13.4 71 3.1 W 11 22 6 12 1011.2 1011.1 1.0
15/07:30pm 18.8 18.2 13.4 71 3.1 W 9 17 5 9 1010.9 1010.8 1.0
15/07:00pm 18.8 18.1 13.2 70 3.2 W 9 19 5 10 1010.8 1010.7 1.0
15/06:30pm 18.7 17.1 12.9 69 3.3 W 13 24 7 13 1010.8 1010.7 1.0
15/06:00pm 18.5 16.5 12.7 69 3.2 WSW 15 30 8 16 1010.9 1010.8 1.0
15/05:30pm 17.5 17.8 14.4 82 1.8 WSW 6 13 3 7 1011.2 1011.1 1.0
15/05:00pm 16.9 16.7 13.6 81 1.9 W 7 15 4 8 1011.7 1011.6 1.0
15/04:30pm 16.5 16.3 13.6 83 1.6 W 7 13 4 7 1012.0 1011.9 1.0

Other Formats:

Comma delimited format used in spreadsheet applications
http://www.bom.gov.au/fwo/IDV60801/IDV60801.94892.axf

JavaScript Object Notation format (JSON) in row-major order
http://www.bom.gov.au/fwo/IDV60801/IDV60801.94892.json